createdAt,value
2022-10-05T00:00:41.318Z,0.00
2022-10-05T00:01:41.777Z,0.00
2022-10-05T00:02:42.023Z,0.00
2022-10-05T00:03:42.382Z,0.00
2022-10-05T00:04:42.778Z,0.00
2022-10-05T00:05:43.134Z,0.00
2022-10-05T00:06:43.714Z,0.00
2022-10-05T00:07:43.849Z,0.00
2022-10-05T00:08:44.187Z,0.00
2022-10-05T00:09:44.557Z,0.00
2022-10-05T00:10:44.936Z,0.00
2022-10-05T00:11:45.285Z,0.00
2022-10-05T00:12:45.635Z,0.00
2022-10-05T00:13:45.983Z,0.00
2022-10-05T00:14:46.345Z,0.00
2022-10-05T00:15:46.705Z,0.00
2022-10-05T00:16:47.460Z,0.00
2022-10-05T00:17:47.462Z,0.00
2022-10-05T00:18:47.797Z,0.00
2022-10-05T00:19:48.150Z,0.00
2022-10-05T00:20:48.548Z,0.00
2022-10-05T00:21:48.883Z,0.00
2022-10-05T00:22:49.231Z,0.00
2022-10-05T00:23:49.606Z,0.00
2022-10-05T00:24:49.952Z,0.00
2022-10-05T00:25:50.404Z,0.00
2022-10-05T00:26:54.178Z,0.00
2022-10-05T00:27:51.059Z,0.00
2022-10-05T00:28:51.424Z,0.00
2022-10-05T00:29:51.783Z,0.00
2022-10-05T00:30:52.156Z,0.00
2022-10-05T00:31:52.513Z,0.00
2022-10-05T00:32:57.306Z,0.00
2022-10-05T00:33:53.244Z,0.00
2022-10-05T00:34:53.586Z,0.00
2022-10-05T00:35:53.984Z,0.00
2022-10-05T00:36:54.293Z,0.00
2022-10-05T00:37:54.673Z,0.00
2022-10-05T00:38:55.031Z,0.00
2022-10-05T00:39:55.375Z,0.00
2022-10-05T00:40:55.739Z,0.00
2022-10-05T00:41:56.106Z,0.00
2022-10-05T00:42:56.448Z,0.00
2022-10-05T00:43:56.797Z,0.00
2022-10-05T00:44:57.150Z,0.00
2022-10-05T00:45:57.633Z,0.00
2022-10-05T00:46:57.881Z,0.00
2022-10-05T00:47:58.238Z,0.00
2022-10-05T00:48:58.595Z,0.00
2022-10-05T00:49:58.939Z,0.00
2022-10-05T00:50:59.304Z,0.00
2022-10-05T00:51:59.676Z,0.00
2022-10-05T00:53:00.025Z,0.00
2022-10-05T00:54:00.366Z,0.00
2022-10-05T00:55:00.747Z,0.00
2022-10-05T00:56:01.141Z,0.00
2022-10-05T00:57:01.451Z,0.00
2022-10-05T00:58:01.803Z,0.00
2022-10-05T00:59:02.153Z,0.00
2022-10-05T01:00:02.511Z,0.00
2022-10-05T01:01:02.941Z,0.00
2022-10-05T01:02:03.305Z,0.00
2022-10-05T01:03:03.609Z,0.00
2022-10-05T01:04:03.954Z,0.00
2022-10-05T01:05:04.314Z,0.00
2022-10-05T01:06:04.699Z,0.00
2022-10-05T01:07:05.003Z,0.00
2022-10-05T01:08:05.481Z,0.00
2022-10-05T01:09:05.717Z,0.00
2022-10-05T01:10:06.055Z,0.00
2022-10-05T01:11:06.425Z,0.00
2022-10-05T01:12:06.765Z,0.00
2022-10-05T01:13:07.142Z,0.00
2022-10-05T01:14:07.495Z,0.00
2022-10-05T01:15:07.835Z,0.00
2022-10-05T01:16:08.339Z,0.00
2022-10-05T01:17:08.571Z,0.00
2022-10-05T01:18:08.919Z,0.00
2022-10-05T01:19:09.263Z,0.00
2022-10-05T01:20:09.629Z,0.00
2022-10-05T01:21:10.036Z,0.00
2022-10-05T01:22:10.345Z,0.00
2022-10-05T01:23:10.694Z,0.00
2022-10-05T01:24:11.045Z,0.00
2022-10-05T01:25:11.421Z,0.00
2022-10-05T01:26:11.782Z,0.00
2022-10-05T01:27:12.123Z,0.00
2022-10-05T01:28:12.501Z,0.00
2022-10-05T01:29:12.841Z,0.00
2022-10-05T01:30:13.187Z,0.00
2022-10-05T01:31:13.585Z,0.00
2022-10-05T01:32:13.888Z,0.00
2022-10-05T01:33:14.284Z,0.00
2022-10-05T01:34:14.627Z,0.00
2022-10-05T01:35:14.980Z,0.00
2022-10-05T01:36:15.350Z,0.00
2022-10-05T01:37:15.687Z,0.00
2022-10-05T01:38:16.055Z,0.00
2022-10-05T01:39:16.407Z,0.00
2022-10-05T01:40:16.761Z,0.00
2022-10-05T01:41:17.130Z,0.00
2022-10-05T01:42:17.491Z,0.00
2022-10-05T01:43:17.829Z,0.00
2022-10-05T01:44:18.222Z,0.00
2022-10-05T01:45:18.563Z,0.00
2022-10-05T01:46:18.963Z,0.00
2022-10-05T01:47:19.345Z,0.00
2022-10-05T01:48:19.678Z,0.00
2022-10-05T01:49:20.019Z,0.00
2022-10-05T01:50:20.367Z,0.00
2022-10-05T01:51:20.733Z,0.00
2022-10-05T01:52:21.071Z,0.00
2022-10-05T01:53:21.462Z,0.00
2022-10-05T01:54:21.813Z,0.00
2022-10-05T01:55:22.163Z,0.00
2022-10-05T01:56:22.522Z,0.00
2022-10-05T01:57:22.885Z,0.00
2022-10-05T01:58:23.226Z,0.00
2022-10-05T01:59:23.608Z,0.00
2022-10-05T02:00:23.964Z,0.00
2022-10-05T02:01:24.434Z,0.00
2022-10-05T02:02:24.806Z,0.00
2022-10-05T02:03:25.096Z,0.00
2022-10-05T02:04:59.873Z,0.00
2022-10-05T02:05:25.778Z,0.00
2022-10-05T02:06:26.182Z,0.00
2022-10-05T02:07:26.496Z,0.00
2022-10-05T02:08:26.843Z,0.00
2022-10-05T02:09:27.198Z,0.00
2022-10-05T02:10:27.547Z,0.00
2022-10-05T02:11:27.959Z,0.00
2022-10-05T02:12:28.362Z,0.00
2022-10-05T02:13:28.631Z,0.00
2022-10-05T02:14:28.977Z,0.00
2022-10-05T02:15:29.424Z,0.00
2022-10-05T02:16:29.731Z,0.00
2022-10-05T02:17:30.069Z,0.00
2022-10-05T02:18:30.458Z,0.00
2022-10-05T02:19:30.774Z,0.00
2022-10-05T02:20:31.128Z,0.00
2022-10-05T02:21:31.528Z,0.00
2022-10-05T02:22:31.851Z,0.00
2022-10-05T02:23:32.276Z,0.00
2022-10-05T02:24:32.578Z,0.00
2022-10-05T02:25:32.969Z,0.00
2022-10-05T02:26:33.311Z,0.00
2022-10-05T02:27:33.662Z,0.00
2022-10-05T02:28:34.044Z,0.00
2022-10-05T02:29:34.383Z,0.00
2022-10-05T02:30:34.771Z,0.00
2022-10-05T02:31:35.317Z,0.00
2022-10-05T02:32:35.498Z,0.00
2022-10-05T02:33:35.887Z,0.00
2022-10-05T02:34:36.255Z,0.00
2022-10-05T02:35:36.564Z,0.00
2022-10-05T02:36:36.934Z,0.00
2022-10-05T02:37:37.267Z,0.00
2022-10-05T02:38:37.678Z,0.00
2022-10-05T02:39:38.018Z,0.00
2022-10-05T02:40:38.372Z,0.00
2022-10-05T02:41:38.762Z,0.00
2022-10-05T02:42:39.171Z,0.00
2022-10-05T02:43:39.493Z,0.00
2022-10-05T02:44:39.863Z,0.00
2022-10-05T02:45:40.229Z,0.00
2022-10-05T02:46:40.592Z,0.00
2022-10-05T02:47:40.968Z,0.00
2022-10-05T02:48:41.287Z,0.00
2022-10-05T02:49:41.638Z,0.00
2022-10-05T02:50:42.019Z,0.00
2022-10-05T02:51:42.378Z,0.00
2022-10-05T02:52:42.722Z,0.00
2022-10-05T02:53:43.082Z,0.00
2022-10-05T02:54:43.434Z,0.00
2022-10-05T02:55:43.979Z,0.00
2022-10-05T02:56:44.570Z,0.00
2022-10-05T02:57:44.485Z,0.00
2022-10-05T02:58:44.853Z,0.00
2022-10-05T02:59:45.201Z,0.00
2022-10-05T03:00:45.573Z,0.00
2022-10-05T03:01:46.089Z,0.00
2022-10-05T03:02:46.260Z,0.00
2022-10-05T03:03:46.677Z,0.00
2022-10-05T03:04:46.968Z,0.00
2022-10-05T03:05:47.334Z,0.00
2022-10-05T03:06:48.149Z,0.00
2022-10-05T03:07:48.037Z,0.00
2022-10-05T03:08:48.396Z,0.00
2022-10-05T03:09:48.746Z,0.00
2022-10-05T03:10:49.095Z,0.00
2022-10-05T03:11:49.473Z,0.00
2022-10-05T03:12:49.813Z,0.00
2022-10-05T03:13:50.169Z,0.00
2022-10-05T03:14:50.526Z,0.00
2022-10-05T03:15:50.901Z,0.00
2022-10-05T03:16:51.236Z,0.00
2022-10-05T03:17:51.578Z,0.00
2022-10-05T03:18:51.930Z,0.00
2022-10-05T03:19:52.306Z,0.00
2022-10-05T03:20:52.646Z,0.00
2022-10-05T03:21:53.069Z,0.00
2022-10-05T03:22:53.384Z,0.00
2022-10-05T03:23:53.752Z,0.00
2022-10-05T03:24:54.083Z,0.00
2022-10-05T03:25:54.436Z,0.00
2022-10-05T03:26:54.806Z,0.00
2022-10-05T03:27:55.194Z,0.00
2022-10-05T03:28:55.529Z,0.00
2022-10-05T03:29:55.886Z,0.00
2022-10-05T03:30:56.269Z,0.00
2022-10-05T03:31:56.607Z,0.00
2022-10-05T03:32:56.946Z,0.00
2022-10-05T03:33:57.353Z,0.00
2022-10-05T03:34:57.654Z,0.00
2022-10-05T03:35:58.006Z,0.00
2022-10-05T03:36:58.365Z,0.00
2022-10-05T03:37:58.710Z,0.00
2022-10-05T03:38:59.078Z,0.00
2022-10-05T03:39:59.427Z,0.00
2022-10-05T03:40:59.771Z,0.00
2022-10-05T03:42:00.158Z,0.00
2022-10-05T03:43:00.481Z,0.00
2022-10-05T03:44:00.832Z,0.00
2022-10-05T03:45:01.181Z,0.00
2022-10-05T03:46:01.590Z,0.00
2022-10-05T03:47:01.931Z,0.00
2022-10-05T03:48:02.274Z,0.00
2022-10-05T03:49:02.624Z,0.00
2022-10-05T03:50:02.982Z,0.00
2022-10-05T03:51:03.349Z,0.00
2022-10-05T03:52:03.755Z,0.00
2022-10-05T03:53:04.055Z,0.00
2022-10-05T03:54:04.403Z,0.00
2022-10-05T03:55:04.756Z,0.00
2022-10-05T03:56:05.115Z,0.00
2022-10-05T03:57:05.507Z,0.00
2022-10-05T03:58:05.817Z,0.00
2022-10-05T03:59:06.171Z,0.00
2022-10-05T04:00:06.522Z,0.00
2022-10-05T04:01:06.938Z,0.00
2022-10-05T04:02:07.247Z,0.00
2022-10-05T04:03:07.596Z,0.00
2022-10-05T04:04:07.951Z,0.00
2022-10-05T04:05:08.296Z,0.00
2022-10-05T04:06:08.658Z,0.00
2022-10-05T04:07:09.016Z,0.00
2022-10-05T04:08:09.372Z,0.00
2022-10-05T04:09:09.728Z,0.00
2022-10-05T04:10:10.101Z,0.00
2022-10-05T04:11:10.450Z,0.00
2022-10-05T04:12:10.886Z,0.00
2022-10-05T04:13:11.184Z,0.00
2022-10-05T04:14:11.545Z,0.00
2022-10-05T04:15:16.443Z,0.00
2022-10-05T04:16:12.334Z,0.00
2022-10-05T04:17:12.679Z,0.00
2022-10-05T04:18:13.025Z,0.00
2022-10-05T04:19:13.372Z,0.00
2022-10-05T04:20:13.759Z,0.00
2022-10-05T04:21:14.111Z,0.00
2022-10-05T04:22:14.556Z,0.00
2022-10-05T04:23:14.833Z,0.00
2022-10-05T04:24:15.183Z,0.00
2022-10-05T04:25:15.526Z,0.00
2022-10-05T04:26:15.882Z,0.00
2022-10-05T04:27:16.251Z,0.00
2022-10-05T04:28:16.671Z,0.00
2022-10-05T04:29:16.937Z,0.00
2022-10-05T04:30:17.374Z,0.00
2022-10-05T04:31:17.782Z,0.00
2022-10-05T04:32:18.070Z,0.00
2022-10-05T04:33:18.426Z,0.00
2022-10-05T04:34:18.787Z,0.00
2022-10-05T04:35:19.136Z,0.00
2022-10-05T04:36:19.490Z,0.00
2022-10-05T04:37:19.871Z,0.00
2022-10-05T04:38:20.188Z,0.00
2022-10-05T04:39:20.541Z,0.00
2022-10-05T04:40:20.907Z,0.00
2022-10-05T04:41:21.270Z,0.00
2022-10-05T04:42:21.650Z,0.00
2022-10-05T04:43:21.990Z,0.00
2022-10-05T04:44:22.342Z,0.00
2022-10-05T04:45:22.695Z,0.00
2022-10-05T04:46:23.148Z,0.00
2022-10-05T04:47:23.418Z,0.00
2022-10-05T04:48:23.795Z,0.00
2022-10-05T04:49:24.119Z,0.00
2022-10-05T04:50:24.473Z,0.00
2022-10-05T04:51:24.832Z,0.00
2022-10-05T04:52:25.230Z,0.00
2022-10-05T04:53:25.574Z,0.00
2022-10-05T04:54:25.931Z,0.00
2022-10-05T04:55:26.310Z,0.00
2022-10-05T04:56:26.719Z,0.00
2022-10-05T04:57:27.054Z,0.00
2022-10-05T04:58:27.476Z,0.00
2022-10-05T04:59:27.778Z,0.00
2022-10-05T05:00:27.955Z,1.00
2022-10-05T05:01:28.092Z,1.00
2022-10-05T05:02:28.406Z,1.00
2022-10-05T05:03:28.740Z,2.00
2022-10-05T05:04:28.811Z,2.00
2022-10-05T05:05:29.138Z,3.00
2022-10-05T05:06:29.298Z,3.00
2022-10-05T05:07:29.457Z,3.00
2022-10-05T05:08:29.884Z,4.00
2022-10-05T05:09:29.922Z,5.00
2022-10-05T05:10:30.095Z,7.00
2022-10-05T05:11:30.251Z,8.00
2022-10-05T05:12:30.440Z,10.00
2022-10-05T05:13:30.591Z,11.00
2022-10-05T05:14:30.771Z,11.00
2022-10-05T05:15:30.956Z,17.00
2022-10-05T05:16:31.292Z,22.00
2022-10-05T05:17:31.416Z,23.00
2022-10-05T05:18:31.579Z,29.00
2022-10-05T05:19:31.753Z,31.00
2022-10-05T05:20:31.953Z,37.00
2022-10-05T05:21:32.117Z,41.00
2022-10-05T05:22:32.447Z,44.00
2022-10-05T05:23:32.707Z,48.00
2022-10-05T05:24:32.852Z,49.00
2022-10-05T05:25:33.154Z,52.00
2022-10-05T05:26:36.811Z,58.00
2022-10-05T05:27:33.650Z,64.00
2022-10-05T05:28:33.899Z,68.00
2022-10-05T05:29:33.977Z,73.00
2022-10-05T05:30:34.161Z,78.00
2022-10-05T05:31:34.551Z,89.00
2022-10-05T05:32:34.648Z,107.00
2022-10-05T05:33:34.962Z,132.00
2022-10-05T05:34:35.112Z,154.00
2022-10-05T05:35:35.402Z,167.00
2022-10-05T05:36:35.696Z,163.00
2022-10-05T05:37:35.883Z,171.00
2022-10-05T05:38:36.056Z,187.00
2022-10-05T05:39:36.199Z,186.00
2022-10-05T05:40:36.543Z,195.00
2022-10-05T05:41:36.535Z,201.00
2022-10-05T05:42:36.718Z,196.00
2022-10-05T05:43:36.875Z,204.00
2022-10-05T05:44:38.962Z,210.00
2022-10-05T05:45:37.239Z,216.00
2022-10-05T05:47:01.758Z,225.00
2022-10-05T05:47:37.799Z,252.00
2022-10-05T05:48:37.921Z,274.00
2022-10-05T05:49:38.249Z,296.00
2022-10-05T05:50:38.367Z,321.00
2022-10-05T05:51:38.533Z,345.00
2022-10-05T05:52:38.721Z,353.00
2022-10-05T05:53:38.872Z,352.00
2022-10-05T05:54:39.036Z,356.00
2022-10-05T05:55:39.218Z,377.00
2022-10-05T05:56:39.395Z,400.00
2022-10-05T05:57:39.618Z,423.00
2022-10-05T05:58:39.728Z,446.00
2022-10-05T05:59:40.062Z,481.00
2022-10-05T06:00:40.225Z,536.00
2022-10-05T06:01:44.274Z,587.00
2022-10-05T06:02:40.890Z,635.00
2022-10-05T06:03:40.871Z,676.00
2022-10-05T06:04:41.059Z,718.00
2022-10-05T06:05:41.199Z,753.00
2022-10-05T06:06:41.403Z,794.00
2022-10-05T06:07:41.594Z,829.00
2022-10-05T06:08:41.747Z,874.00
2022-10-05T06:09:41.952Z,928.00
2022-10-05T06:10:42.167Z,965.00
2022-10-05T06:11:42.298Z,1013.00
2022-10-05T06:12:42.477Z,1059.00
2022-10-05T06:13:42.640Z,1101.00
2022-10-05T06:14:42.817Z,1141.00
2022-10-05T06:15:42.982Z,1172.00
2022-10-05T06:16:43.238Z,1209.00
2022-10-05T06:17:43.383Z,1253.00
2022-10-05T06:18:43.544Z,1291.00
2022-10-05T06:19:43.742Z,1328.00
2022-10-05T06:20:43.922Z,1365.00
2022-10-05T06:21:44.134Z,1417.00
2022-10-05T06:22:44.368Z,1464.00
2022-10-05T06:23:44.495Z,1514.00
2022-10-05T06:24:44.684Z,1577.00
2022-10-05T06:25:44.905Z,1631.00
2022-10-05T06:26:45.462Z,1686.00
2022-10-05T06:27:45.285Z,1745.00
2022-10-05T06:28:45.475Z,1783.00
2022-10-05T06:29:45.712Z,1802.00
2022-10-05T06:30:45.835Z,1789.00
2022-10-05T06:31:46.102Z,1828.00
2022-10-05T06:32:46.218Z,1844.00
2022-10-05T06:33:46.406Z,1863.00
2022-10-05T06:34:46.593Z,1893.00
2022-10-05T06:35:46.796Z,1921.00
2022-10-05T06:36:47.502Z,1959.00
2022-10-05T06:37:47.193Z,1964.00
2022-10-05T06:38:47.395Z,1958.00
2022-10-05T06:39:47.588Z,1947.00
2022-10-05T06:40:47.749Z,1952.00
2022-10-05T06:41:47.948Z,1966.00
2022-10-05T06:42:48.151Z,1916.00
2022-10-05T06:43:48.354Z,1809.00
2022-10-05T06:44:48.516Z,1745.00
2022-10-05T06:45:48.808Z,1811.00
2022-10-05T06:46:49.250Z,1878.00
2022-10-05T06:47:49.121Z,1925.00
2022-10-05T06:48:49.273Z,1946.00
2022-10-05T06:49:49.468Z,1941.00
2022-10-05T06:50:49.677Z,1912.00
2022-10-05T06:51:49.846Z,1884.00
2022-10-05T06:52:50.087Z,1981.00
2022-10-05T06:53:50.224Z,1997.00
2022-10-05T06:54:50.417Z,1968.00
2022-10-05T06:55:50.600Z,1979.00
2022-10-05T06:56:50.782Z,2063.00
2022-10-05T06:57:51.014Z,2216.00
2022-10-05T06:58:51.166Z,2344.00
2022-10-05T06:59:51.352Z,2315.00
2022-10-05T07:00:51.579Z,2214.00
2022-10-05T07:01:52.066Z,2252.00
2022-10-05T07:02:51.946Z,2314.00
2022-10-05T07:03:52.123Z,2308.00
2022-10-05T07:04:52.292Z,2409.00
2022-10-05T07:05:52.516Z,2330.00
2022-10-05T07:06:52.710Z,2101.00
2022-10-05T07:07:52.943Z,2034.00
2022-10-05T07:08:53.092Z,2133.00
2022-10-05T07:09:53.274Z,2288.00
2022-10-05T07:10:53.468Z,2546.00
2022-10-05T07:11:58.409Z,2732.00
2022-10-05T07:12:53.843Z,2772.00
2022-10-05T07:13:54.029Z,2780.00
2022-10-05T07:14:54.201Z,2886.00
2022-10-05T07:15:54.385Z,3125.00
2022-10-05T07:16:54.657Z,3170.00
2022-10-05T07:17:54.917Z,3060.00
2022-10-05T07:18:54.956Z,3033.00
2022-10-05T07:19:55.144Z,2896.00
2022-10-05T07:20:55.331Z,2897.00
2022-10-05T07:21:55.522Z,2951.00
2022-10-05T07:22:55.847Z,2901.00
2022-10-05T07:23:55.898Z,2731.00
2022-10-05T07:24:56.031Z,2768.00
2022-10-05T07:25:56.251Z,2812.00
2022-10-05T07:26:56.442Z,3107.00
2022-10-05T07:27:56.682Z,2895.00
2022-10-05T07:28:56.806Z,2787.00
2022-10-05T07:29:57.018Z,2818.00
2022-10-05T07:30:57.234Z,2930.00
2022-10-05T07:31:57.407Z,2746.00
2022-10-05T07:32:57.609Z,2407.00
2022-10-05T07:33:57.800Z,2462.00
2022-10-05T07:34:57.985Z,2589.00
2022-10-05T07:35:58.172Z,2641.00
2022-10-05T07:36:58.817Z,2728.00
2022-10-05T07:37:58.556Z,2748.00
2022-10-05T07:38:58.731Z,2883.00
2022-10-05T07:40:01.177Z,2840.00
2022-10-05T07:40:59.107Z,2874.00
2022-10-05T07:41:59.299Z,3007.00
2022-10-05T07:42:59.496Z,3026.00
2022-10-05T07:44:03.425Z,3032.00
2022-10-05T07:44:59.874Z,2924.00
2022-10-05T07:46:00.140Z,2865.00
2022-10-05T07:47:00.255Z,2852.00
2022-10-05T07:48:00.463Z,2656.00
2022-10-05T07:49:00.609Z,2561.00
2022-10-05T07:50:00.806Z,2666.00
2022-10-05T07:51:01.033Z,2832.00
2022-10-05T07:52:01.176Z,3032.00
2022-10-05T07:53:01.377Z,3338.00
2022-10-05T07:54:01.560Z,3468.00
2022-10-05T07:55:01.750Z,3269.00
2022-10-05T07:56:01.952Z,3450.00
2022-10-05T07:57:02.142Z,3310.00
2022-10-05T07:58:02.336Z,2489.00
2022-10-05T07:59:02.487Z,2603.00
2022-10-05T08:00:02.683Z,2746.00
2022-10-05T08:01:02.863Z,3012.00
2022-10-05T08:02:03.159Z,3087.00
2022-10-05T08:03:03.395Z,3311.00
2022-10-05T08:04:03.413Z,4130.00
2022-10-05T08:05:03.597Z,4833.00
2022-10-05T08:06:03.787Z,5136.00
2022-10-05T08:07:03.966Z,5509.00
2022-10-05T08:08:04.172Z,5446.00
2022-10-05T08:09:04.332Z,5284.00
2022-10-05T08:10:04.519Z,4816.00
2022-10-05T08:11:04.702Z,4246.00
2022-10-05T08:12:04.886Z,4454.00
2022-10-05T08:13:05.083Z,4732.00
2022-10-05T08:14:05.276Z,4891.00
2022-10-05T08:15:05.460Z,4825.00
2022-10-05T08:16:05.710Z,5031.00
2022-10-05T08:17:05.841Z,5029.00
2022-10-05T08:18:06.041Z,5065.00
2022-10-05T08:19:06.223Z,5166.00
2022-10-05T08:20:06.416Z,5227.00
2022-10-05T08:21:06.598Z,5240.00
2022-10-05T08:22:06.794Z,4857.00
2022-10-05T08:23:07.025Z,4964.00
2022-10-05T08:24:07.186Z,5193.00
2022-10-05T08:25:07.362Z,5374.00
2022-10-05T08:26:07.579Z,5285.00
2022-10-05T08:27:07.761Z,5252.00
2022-10-05T08:28:08.010Z,5413.00
2022-10-05T08:29:11.516Z,5267.00
2022-10-05T08:30:08.322Z,5082.00
2022-10-05T08:31:08.585Z,5494.00
2022-10-05T08:32:08.710Z,5298.00
2022-10-05T08:33:08.917Z,5253.00
2022-10-05T08:34:09.110Z,5926.00
2022-10-05T08:35:09.293Z,5385.00
2022-10-05T08:36:09.482Z,6229.00
2022-10-05T08:37:09.690Z,5813.00
2022-10-05T08:38:09.908Z,5106.00
2022-10-05T08:39:10.043Z,5065.00
2022-10-05T08:40:10.242Z,4987.00
2022-10-05T08:41:10.430Z,5296.00
2022-10-05T08:42:10.636Z,5576.00
2022-10-05T08:43:10.857Z,5657.00
2022-10-05T08:44:11.009Z,4327.00
2022-10-05T08:45:11.201Z,3062.00
2022-10-05T08:46:11.455Z,2978.00
2022-10-05T08:47:11.585Z,4138.00
2022-10-05T08:48:11.764Z,6093.00
2022-10-05T08:49:11.910Z,6821.00
2022-10-05T08:50:12.175Z,7510.00
2022-10-05T08:51:12.293Z,7476.00
2022-10-05T08:52:12.479Z,7339.00
2022-10-05T08:53:12.728Z,7022.00
2022-10-05T08:54:12.849Z,6312.00
2022-10-05T08:55:13.075Z,6157.00
2022-10-05T08:56:17.659Z,6982.00
2022-10-05T08:57:13.427Z,6632.00
2022-10-05T08:58:13.636Z,6494.00
2022-10-05T08:59:13.807Z,6669.00
2022-10-05T09:00:14.013Z,6806.00
2022-10-05T09:01:14.249Z,6608.00
2022-10-05T09:02:14.534Z,6447.00
2022-10-05T09:03:14.642Z,6857.00
2022-10-05T09:04:14.802Z,6610.00
2022-10-05T09:05:14.993Z,6894.00
2022-10-05T09:06:15.195Z,6692.00
2022-10-05T09:07:15.407Z,6852.00
2022-10-05T09:08:15.585Z,7094.00
2022-10-05T09:09:15.736Z,7307.00
2022-10-05T09:10:15.937Z,7158.00
2022-10-05T09:11:16.093Z,7341.00
2022-10-05T09:12:16.322Z,7401.00
2022-10-05T09:13:16.508Z,7412.00
2022-10-05T09:14:16.669Z,7643.00
2022-10-05T09:15:32.039Z,7665.00
2022-10-05T09:16:17.148Z,7344.00
2022-10-05T09:17:17.240Z,6962.00
2022-10-05T09:18:17.447Z,7010.00
2022-10-05T09:19:17.605Z,6956.00
2022-10-05T09:20:17.811Z,6763.00
2022-10-05T09:21:17.997Z,6781.00
2022-10-05T09:22:18.194Z,6486.00
2022-10-05T09:23:18.452Z,6891.00
2022-10-05T09:24:18.602Z,7053.00
2022-10-05T09:25:18.790Z,7071.00
2022-10-05T09:26:18.977Z,7077.00
2022-10-05T09:27:19.238Z,7304.00
2022-10-05T09:28:19.444Z,6940.00
2022-10-05T09:29:19.562Z,6888.00
2022-10-05T09:30:19.755Z,7031.00
2022-10-05T09:31:19.985Z,7048.00
2022-10-05T09:32:20.142Z,7175.00
2022-10-05T09:33:20.356Z,6635.00
2022-10-05T09:34:20.505Z,5917.00
2022-10-05T09:35:20.717Z,6100.00
2022-10-05T09:36:20.874Z,6787.00
2022-10-05T09:37:21.075Z,7456.00
2022-10-05T09:38:21.263Z,7525.00
2022-10-05T09:39:21.424Z,6187.00
2022-10-05T09:40:21.616Z,5812.00
2022-10-05T09:41:21.820Z,5857.00
2022-10-05T09:42:22.011Z,5250.00
2022-10-05T09:43:22.236Z,4412.00
2022-10-05T09:44:22.387Z,4173.00
2022-10-05T09:45:22.579Z,4417.00
2022-10-05T09:46:22.831Z,3917.00
2022-10-05T09:47:22.966Z,4517.00
2022-10-05T09:48:23.186Z,3876.00
2022-10-05T09:49:23.356Z,4303.00
2022-10-05T09:50:23.554Z,4908.00
2022-10-05T09:51:23.752Z,5874.00
2022-10-05T09:52:23.948Z,6035.00
2022-10-05T09:53:24.158Z,5521.00
2022-10-05T09:54:24.313Z,5136.00
2022-10-05T09:55:24.538Z,4949.00
2022-10-05T09:56:24.734Z,4781.00
2022-10-05T09:57:24.900Z,6229.00
2022-10-05T09:58:25.116Z,6216.00
2022-10-05T09:59:25.281Z,5949.00
2022-10-05T10:00:25.445Z,5663.00
2022-10-05T10:01:44.850Z,5754.00
2022-10-05T10:02:25.988Z,6059.00
2022-10-05T10:03:26.125Z,5467.00
2022-10-05T10:04:26.206Z,5505.00
2022-10-05T10:05:26.393Z,5677.00
2022-10-05T10:06:26.565Z,5231.00
2022-10-05T10:07:26.769Z,5120.00
2022-10-05T10:08:26.970Z,4711.00
2022-10-05T10:09:27.167Z,4952.00
2022-10-05T10:10:27.358Z,5415.00
2022-10-05T10:11:27.555Z,5530.00
2022-10-05T10:12:27.739Z,5069.00
2022-10-05T10:13:27.942Z,4159.00
2022-10-05T10:14:28.126Z,4281.00
2022-10-05T10:15:28.375Z,3997.00
2022-10-05T10:16:28.550Z,4934.00
2022-10-05T10:17:28.686Z,5424.00
2022-10-05T10:18:28.899Z,5459.00
2022-10-05T10:19:29.137Z,5009.00
2022-10-05T10:20:29.250Z,4286.00
2022-10-05T10:21:29.474Z,4879.00
2022-10-05T10:22:29.633Z,5362.00
2022-10-05T10:23:29.872Z,4606.00
2022-10-05T10:24:30.025Z,4781.00
2022-10-05T10:25:30.218Z,5015.00
2022-10-05T10:26:30.410Z,4644.00
2022-10-05T10:27:30.623Z,5169.00
2022-10-05T10:28:30.914Z,5783.00
2022-10-05T10:29:30.999Z,4692.00
2022-10-05T10:30:33.186Z,4462.00
2022-10-05T10:31:31.433Z,5076.00
2022-10-05T10:32:31.547Z,5801.00
2022-10-05T10:33:31.763Z,5210.00
2022-10-05T10:34:31.910Z,4094.00
2022-10-05T10:35:32.132Z,4048.00
2022-10-05T10:36:32.303Z,3973.00
2022-10-05T10:37:32.518Z,4423.00
2022-10-05T10:38:32.722Z,4853.00
2022-10-05T10:39:32.885Z,4683.00
2022-10-05T10:40:33.077Z,4270.00
2022-10-05T10:41:33.274Z,4577.00
2022-10-05T10:42:33.480Z,4911.00
2022-10-05T10:43:33.690Z,4996.00
2022-10-05T10:44:33.881Z,4306.00
2022-10-05T10:45:34.036Z,4015.00
2022-10-05T10:46:34.307Z,4216.00
2022-10-05T10:47:34.429Z,4423.00
2022-10-05T10:48:34.642Z,4554.00
2022-10-05T10:49:34.842Z,3831.00
2022-10-05T10:50:35.007Z,4371.00
2022-10-05T10:51:35.226Z,4880.00
2022-10-05T10:52:35.435Z,4868.00
2022-10-05T10:53:35.657Z,4343.00
2022-10-05T10:54:35.758Z,4275.00
2022-10-05T10:55:35.953Z,4643.00
2022-10-05T10:56:36.180Z,4375.00
2022-10-05T10:57:36.344Z,5020.00
2022-10-05T10:58:36.572Z,4920.00
2022-10-05T10:59:36.741Z,5098.00
2022-10-05T11:00:36.895Z,5196.00
2022-10-05T11:01:37.142Z,5324.00
2022-10-05T11:02:37.449Z,5052.00
2022-10-05T11:03:37.475Z,4804.00
2022-10-05T11:04:37.646Z,4776.00
2022-10-05T11:05:37.804Z,4733.00
2022-10-05T11:06:38.027Z,4497.00
2022-10-05T11:07:38.173Z,4632.00
2022-10-05T11:08:38.385Z,4773.00
2022-10-05T11:09:38.581Z,4890.00
2022-10-05T11:10:38.737Z,5198.00
2022-10-05T11:11:38.932Z,5282.00
2022-10-05T11:12:39.124Z,5392.00
2022-10-05T11:13:39.348Z,6185.00
2022-10-05T11:14:39.520Z,6141.00
2022-10-05T11:15:39.757Z,6445.00
2022-10-05T11:16:39.895Z,6034.00
2022-10-05T11:17:40.083Z,6193.00
2022-10-05T11:18:40.295Z,6262.00
2022-10-05T11:19:52.821Z,6022.00
2022-10-05T11:20:40.631Z,5657.00
2022-10-05T11:21:40.849Z,5157.00
2022-10-05T11:22:41.012Z,5171.00
2022-10-05T11:23:41.255Z,6493.00
2022-10-05T11:24:41.397Z,6755.00
2022-10-05T11:25:41.590Z,6338.00
2022-10-05T11:26:41.779Z,5796.00
2022-10-05T11:27:42.043Z,5397.00
2022-10-05T11:28:42.242Z,5575.00
2022-10-05T11:29:42.349Z,5461.00
2022-10-05T11:30:43.160Z,5257.00
2022-10-05T11:31:42.807Z,5798.00
2022-10-05T11:32:42.911Z,5831.00
2022-10-05T11:33:43.123Z,5933.00
2022-10-05T11:34:43.278Z,5682.00
2022-10-05T11:35:43.470Z,5904.00
2022-10-05T11:36:43.664Z,5621.00
2022-10-05T11:37:43.858Z,6084.00
2022-10-05T11:38:44.075Z,6060.00
2022-10-05T11:39:44.230Z,5754.00
2022-10-05T11:40:44.429Z,6051.00
2022-10-05T11:41:44.634Z,6469.00
2022-10-05T11:42:44.877Z,7037.00
2022-10-05T11:43:45.059Z,6988.00
2022-10-05T11:44:45.211Z,6196.00
2022-10-05T11:45:45.415Z,6895.00
2022-10-05T11:46:45.672Z,6900.00
2022-10-05T11:47:45.804Z,7081.00
2022-10-05T11:48:46.017Z,7859.00
2022-10-05T11:49:46.194Z,8060.00
2022-10-05T11:50:46.351Z,8160.00
2022-10-05T11:51:46.973Z,8534.00
2022-10-05T11:52:46.755Z,8822.00
2022-10-05T11:53:46.934Z,8915.00
2022-10-05T11:55:12.541Z,8016.00
2022-10-05T11:55:47.288Z,7603.00
2022-10-05T11:56:50.757Z,7805.00
2022-10-05T11:57:47.661Z,8123.00
2022-10-05T11:58:47.879Z,8463.00
2022-10-05T11:59:48.053Z,8669.00
2022-10-05T12:00:48.203Z,8182.00
2022-10-05T12:01:48.423Z,7988.00
2022-10-05T12:02:48.656Z,8179.00
2022-10-05T12:03:49.097Z,7879.00
2022-10-05T12:04:48.960Z,7128.00
2022-10-05T12:05:49.171Z,7109.00
2022-10-05T12:06:49.612Z,7186.00
2022-10-05T12:07:49.580Z,6684.00
2022-10-05T12:08:49.796Z,6708.00
2022-10-05T12:09:49.954Z,6791.00
2022-10-05T12:10:50.149Z,7326.00
2022-10-05T12:11:53.241Z,7825.00
2022-10-05T12:12:50.513Z,8069.00
2022-10-05T12:13:50.748Z,7407.00
2022-10-05T12:14:50.887Z,7378.00
2022-10-05T12:15:51.109Z,7261.00
2022-10-05T12:16:51.278Z,7787.00
2022-10-05T12:17:51.469Z,7027.00
2022-10-05T12:18:51.677Z,7411.00
2022-10-05T12:19:51.838Z,7870.00
2022-10-05T12:20:52.030Z,7625.00
2022-10-05T12:21:52.230Z,8081.00
2022-10-05T12:22:52.441Z,8384.00
2022-10-05T12:23:52.679Z,8339.00
2022-10-05T12:24:52.829Z,8159.00
2022-10-05T12:25:53.029Z,8880.00
2022-10-05T12:26:53.231Z,8414.00
2022-10-05T12:27:53.508Z,8123.00
2022-10-05T12:28:53.586Z,8607.00
2022-10-05T12:29:53.765Z,7951.00
2022-10-05T12:30:53.916Z,8080.00
2022-10-05T12:31:54.102Z,7691.00
2022-10-05T12:32:59.356Z,11232.00
2022-10-05T12:33:54.511Z,8734.00
2022-10-05T12:35:01.051Z,7903.00
2022-10-05T12:35:54.895Z,8551.00
2022-10-05T12:37:10.297Z,8551.00
2022-10-05T12:37:55.356Z,8611.00
2022-10-05T12:38:55.522Z,8518.00
2022-10-05T12:39:55.584Z,8707.00